createdAt,value
2018-10-09T00:00:47.825Z,30.3
2018-10-09T00:01:48.555Z,31.5
2018-10-09T00:02:49.733Z,30.1
2018-10-09T00:03:50.450Z,32.6
2018-10-09T00:04:51.577Z,31.1
2018-10-09T00:05:52.333Z,32.0
2018-10-09T00:06:53.095Z,31.6
2018-10-09T00:07:54.227Z,31.6
2018-10-09T00:08:54.950Z,31.6
2018-10-09T00:09:55.823Z,31.4
2018-10-09T00:10:56.658Z,30.1
2018-10-09T00:11:57.744Z,30.0
2018-10-09T00:12:58.480Z,29.6
2018-10-09T00:13:59.270Z,30.0
2018-10-09T00:15:00.005Z,30.7
2018-10-09T00:16:00.922Z,31.0
2018-10-09T00:17:02.158Z,32.1
2018-10-09T00:18:02.981Z,31.7
2018-10-09T00:19:03.692Z,30.7
2018-10-09T00:20:04.402Z,33.7
2018-10-09T00:21:05.133Z,34.1
2018-10-09T00:22:05.854Z,32.6
2018-10-09T00:23:06.567Z,32.4
2018-10-09T00:24:07.294Z,32.4
2018-10-09T00:25:08.040Z,30.5
2018-10-09T00:26:08.861Z,31.6
2018-10-09T00:27:09.504Z,31.0
2018-10-09T00:28:10.237Z,32.6
2018-10-09T00:29:10.957Z,32.2
2018-10-09T00:30:11.675Z,31.3
2018-10-09T00:31:12.385Z,30.9
2018-10-09T00:32:13.116Z,30.6
2018-10-09T00:33:13.848Z,29.6
2018-10-09T00:34:14.553Z,29.4
2018-10-09T00:35:15.514Z,29.4
2018-10-09T00:36:16.537Z,29.2
2018-10-09T00:37:17.237Z,29.3
2018-10-09T00:38:18.211Z,29.0
2018-10-09T00:39:18.928Z,28.9
2018-10-09T00:40:19.649Z,29.7
2018-10-09T00:41:20.368Z,29.9
2018-10-09T00:42:21.082Z,28.9
2018-10-09T00:43:21.797Z,28.7
2018-10-09T00:44:22.521Z,28.4
2018-10-09T00:45:23.234Z,27.6
2018-10-09T00:46:23.947Z,27.5
2018-10-09T00:47:24.662Z,26.7
2018-10-09T00:48:25.366Z,27.7
2018-10-09T00:49:26.087Z,26.8
2018-10-09T00:50:26.798Z,26.5
2018-10-09T00:51:27.528Z,26.2
2018-10-09T00:52:28.240Z,26.3
2018-10-09T00:53:28.958Z,25.0
2018-10-09T00:54:29.692Z,26.0
2018-10-09T00:55:30.468Z,26.0
2018-10-09T00:56:31.190Z,26.3
2018-10-09T00:57:31.900Z,24.7
2018-10-09T00:58:32.613Z,25.3
2018-10-09T00:59:33.332Z,25.6
2018-10-09T01:00:34.096Z,25.8
2018-10-09T01:01:34.814Z,27.4
2018-10-09T01:02:35.777Z,25.8
2018-10-09T01:03:36.750Z,27.1
2018-10-09T01:04:37.458Z,28.3
2018-10-09T01:05:38.580Z,27.7
2018-10-09T01:06:39.303Z,27.2
2018-10-09T01:07:40.022Z,28.9
2018-10-09T01:08:40.742Z,26.5
2018-10-09T01:09:41.473Z,26.4
2018-10-09T01:10:42.182Z,27.1
2018-10-09T01:11:42.935Z,27.7
2018-10-09T01:12:43.917Z,28.0
2018-10-09T01:13:44.618Z,27.1
2018-10-09T01:14:45.329Z,26.4
2018-10-09T01:15:46.050Z,28.2
2018-10-09T01:16:47.331Z,27.6
2018-10-09T01:17:48.038Z,27.0
2018-10-09T01:18:48.753Z,28.3
2018-10-09T01:19:49.455Z,26.4
2018-10-09T01:20:50.175Z,26.9
2018-10-09T01:21:50.891Z,27.5
2018-10-09T01:22:51.605Z,27.5
2018-10-09T01:23:52.576Z,28.3
2018-10-09T01:24:53.552Z,25.7
2018-10-09T01:25:54.281Z,27.6
2018-10-09T01:26:54.985Z,26.2
2018-10-09T01:27:55.753Z,26.6
2018-10-09T01:28:56.463Z,27.2
2018-10-09T01:29:57.418Z,26.0
2018-10-09T01:30:58.138Z,26.7
2018-10-09T01:31:58.872Z,25.9
2018-10-09T01:32:59.589Z,25.8
2018-10-09T01:34:02.239Z,26.3
2018-10-09T01:35:02.942Z,26.6
2018-10-09T01:36:03.655Z,27.3
2018-10-09T01:37:04.613Z,26.8
2018-10-09T01:38:05.665Z,27.2
2018-10-09T01:39:06.370Z,28.5
2018-10-09T01:40:07.079Z,27.2
2018-10-09T01:41:07.817Z,27.9
2018-10-09T01:42:08.532Z,27.5
2018-10-09T01:43:09.258Z,26.9
2018-10-09T01:44:09.968Z,28.0
2018-10-09T01:45:10.980Z,27.5
2018-10-09T01:46:11.688Z,29.4
2018-10-09T01:47:12.648Z,27.7
2018-10-09T01:48:13.366Z,29.4
2018-10-09T01:49:14.079Z,29.2
2018-10-09T01:50:14.802Z,29.7
2018-10-09T01:51:15.763Z,27.9
2018-10-09T01:52:16.474Z,29.4
2018-10-09T01:53:17.193Z,28.7
2018-10-09T01:54:17.906Z,29.3
2018-10-09T01:55:18.686Z,31.7
2018-10-09T01:56:19.402Z,30.3
2018-10-09T01:57:20.117Z,30.0
2018-10-09T01:58:20.836Z,30.2
2018-10-09T01:59:21.560Z,32.0
2018-10-09T02:00:22.281Z,30.8
2018-10-09T02:01:22.987Z,30.7
2018-10-09T02:02:23.945Z,31.3
2018-10-09T02:03:24.669Z,31.0
2018-10-09T02:04:25.392Z,30.8
2018-10-09T02:05:26.104Z,31.5
2018-10-09T02:06:26.825Z,32.6
2018-10-09T02:07:27.541Z,32.8
2018-10-09T02:08:28.302Z,32.5
2018-10-09T02:09:29.292Z,31.5
2018-10-09T02:10:30.012Z,30.5
2018-10-09T02:11:30.717Z,32.3
2018-10-09T02:12:31.433Z,31.3
2018-10-09T02:13:32.154Z,31.8
2018-10-09T02:14:32.854Z,33.3
2018-10-09T02:15:33.573Z,33.0
2018-10-09T02:16:34.284Z,34.3
2018-10-09T02:17:34.997Z,32.9
2018-10-09T02:18:35.714Z,32.2
2018-10-09T02:19:36.436Z,34.8
2018-10-09T02:20:37.157Z,33.1
2018-10-09T02:21:37.866Z,33.5
2018-10-09T02:22:38.584Z,34.0
2018-10-09T02:23:39.287Z,33.0
2018-10-09T02:24:39.998Z,33.7
2018-10-09T02:25:40.714Z,32.6
2018-10-09T02:26:41.451Z,33.4
2018-10-09T02:27:42.167Z,34.9
2018-10-09T02:28:42.908Z,32.0
2018-10-09T02:29:43.622Z,32.8
2018-10-09T02:30:44.335Z,33.3
2018-10-09T02:31:45.052Z,35.0
2018-10-09T02:32:45.762Z,33.9
2018-10-09T02:33:46.600Z,34.2
2018-10-09T02:34:47.208Z,34.3
2018-10-09T02:35:47.918Z,34.4
2018-10-09T02:36:48.628Z,34.0
2018-10-09T02:37:49.345Z,32.6
2018-10-09T02:38:50.060Z,34.3
2018-10-09T02:39:50.781Z,35.1
2018-10-09T02:40:51.490Z,34.4
2018-10-09T02:41:52.226Z,34.1
2018-10-09T02:42:52.942Z,34.6
2018-10-09T02:43:53.657Z,36.2
2018-10-09T02:44:54.374Z,37.2
2018-10-09T02:45:55.098Z,36.6
2018-10-09T02:46:55.812Z,36.6
2018-10-09T02:47:56.531Z,38.4
2018-10-09T02:48:57.244Z,35.3
2018-10-09T02:49:57.958Z,37.3
2018-10-09T02:50:58.692Z,35.9
2018-10-09T02:51:59.409Z,34.6
2018-10-09T02:53:00.181Z,36.9
2018-10-09T02:54:00.890Z,37.1
2018-10-09T02:55:01.605Z,37.9
2018-10-09T02:56:02.315Z,37.8
2018-10-09T02:57:03.027Z,38.1
2018-10-09T02:58:03.745Z,37.4
2018-10-09T02:59:04.452Z,37.4
2018-10-09T03:00:05.433Z,36.7
2018-10-09T03:01:06.167Z,37.7
2018-10-09T03:02:06.889Z,37.8
2018-10-09T03:03:07.607Z,36.5
2018-10-09T03:04:08.321Z,39.6
2018-10-09T03:05:09.045Z,38.5
2018-10-09T03:06:09.758Z,38.8
2018-10-09T03:07:10.477Z,37.5
2018-10-09T03:08:11.492Z,38.0
2018-10-09T03:09:12.205Z,37.6
2018-10-09T03:10:12.926Z,37.4
2018-10-09T03:11:13.642Z,37.0
2018-10-09T03:12:14.600Z,38.4
2018-10-09T03:13:15.326Z,40.4
2018-10-09T03:14:16.030Z,39.4
2018-10-09T03:15:16.756Z,38.8
2018-10-09T03:16:17.463Z,40.4
2018-10-09T03:17:18.176Z,37.8
2018-10-09T03:18:18.898Z,39.6
2018-10-09T03:19:19.606Z,39.6
2018-10-09T03:20:20.306Z,38.6
2018-10-09T03:21:21.018Z,38.7
2018-10-09T03:22:21.735Z,39.5
2018-10-09T03:23:22.441Z,39.7
2018-10-09T03:24:23.218Z,41.7
2018-10-09T03:25:23.924Z,40.8
2018-10-09T03:26:24.637Z,39.7
2018-10-09T03:27:25.349Z,41.0
2018-10-09T03:28:26.066Z,39.8
2018-10-09T03:29:26.791Z,38.7
2018-10-09T03:30:27.505Z,40.3
2018-10-09T03:31:28.220Z,39.9
2018-10-09T03:32:28.939Z,40.1
2018-10-09T03:33:29.654Z,41.4
2018-10-09T03:34:30.357Z,41.0
2018-10-09T03:35:31.063Z,41.3
2018-10-09T03:36:31.785Z,41.7
2018-10-09T03:37:32.516Z,40.7
2018-10-09T03:38:33.477Z,42.6
2018-10-09T03:39:34.241Z,43.8
2018-10-09T03:40:34.945Z,43.6
2018-10-09T03:41:35.671Z,43.0
2018-10-09T03:42:36.386Z,44.7
2018-10-09T03:43:37.404Z,46.9
2018-10-09T03:44:38.118Z,45.1
2018-10-09T03:45:39.077Z,45.9
2018-10-09T03:46:39.797Z,46.1
2018-10-09T03:47:40.509Z,46.3
2018-10-09T03:48:41.221Z,47.4
2018-10-09T03:49:41.931Z,44.7
2018-10-09T03:50:42.649Z,43.1
2018-10-09T03:51:43.357Z,46.5
2018-10-09T03:52:44.079Z,46.0
2018-10-09T03:53:44.783Z,47.4
2018-10-09T03:54:45.750Z,47.5
2018-10-09T03:55:46.459Z,46.7
2018-10-09T03:56:47.178Z,47.9
2018-10-09T03:57:47.896Z,47.0
2018-10-09T03:58:48.878Z,48.4
2018-10-09T03:59:49.588Z,46.7
2018-10-09T04:00:50.564Z,46.4
2018-10-09T04:01:51.282Z,44.6
2018-10-09T04:02:51.996Z,46.9
2018-10-09T04:03:52.707Z,47.0
2018-10-09T04:04:53.425Z,48.9
2018-10-09T04:05:54.196Z,52.0
2018-10-09T04:06:54.920Z,54.5
2018-10-09T04:07:55.634Z,54.6
2018-10-09T04:08:56.402Z,55.0
2018-10-09T04:09:57.343Z,54.6
2018-10-09T04:10:58.113Z,54.9
2018-10-09T04:11:58.818Z,58.0
2018-10-09T04:12:59.527Z,54.2
2018-10-09T04:14:00.282Z,58.4
2018-10-09T04:15:00.982Z,54.8
2018-10-09T04:16:01.696Z,56.8
2018-10-09T04:17:02.415Z,56.7
2018-10-09T04:18:03.132Z,57.3
2018-10-09T04:19:03.852Z,57.9
2018-10-09T04:20:04.567Z,55.9
2018-10-09T04:21:05.336Z,54.7
2018-10-09T04:22:06.049Z,54.3
2018-10-09T04:23:06.770Z,51.7
2018-10-09T04:24:07.745Z,52.3
2018-10-09T04:25:08.454Z,51.8
2018-10-09T04:26:09.174Z,56.0
2018-10-09T04:27:09.898Z,56.9
2018-10-09T04:28:10.614Z,56.9
2018-10-09T04:29:11.330Z,58.8
2018-10-09T04:30:12.044Z,59.9
2018-10-09T04:31:12.764Z,59.1
2018-10-09T04:32:13.534Z,56.3
2018-10-09T04:33:14.248Z,59.3
2018-10-09T04:34:14.950Z,57.9
2018-10-09T04:35:15.666Z,58.6
2018-10-09T04:36:16.377Z,61.0
2018-10-09T04:37:17.081Z,57.8
2018-10-09T04:38:18.044Z,58.3
2018-10-09T04:39:18.810Z,62.8
2018-10-09T04:40:19.537Z,57.1
2018-10-09T04:41:20.250Z,58.2
2018-10-09T04:42:20.957Z,58.7
2018-10-09T04:43:21.686Z,61.1
2018-10-09T04:44:22.448Z,58.6
2018-10-09T04:45:23.181Z,58.8
2018-10-09T04:46:23.891Z,57.9
2018-10-09T04:47:24.598Z,60.7
2018-10-09T04:48:25.305Z,57.6
2018-10-09T04:49:26.076Z,61.2
2018-10-09T04:50:26.800Z,61.5
2018-10-09T04:51:27.513Z,60.5
2018-10-09T04:52:28.478Z,63.6
2018-10-09T04:53:29.186Z,64.5
2018-10-09T04:54:29.901Z,62.3
2018-10-09T04:55:30.622Z,60.1
2018-10-09T04:56:31.331Z,64.4
2018-10-09T04:57:32.055Z,64.2
2018-10-09T04:58:32.770Z,61.2
2018-10-09T04:59:33.496Z,60.2
2018-10-09T05:00:34.265Z,63.0
2018-10-09T05:01:34.919Z,65.2
2018-10-09T05:02:35.879Z,68.8
2018-10-09T05:03:36.590Z,67.9
2018-10-09T05:04:37.312Z,68.9
2018-10-09T05:05:38.039Z,67.9
2018-10-09T05:06:38.764Z,62.7
2018-10-09T05:07:39.478Z,65.1
2018-10-09T05:08:40.203Z,64.3
2018-10-09T05:09:40.920Z,60.5
2018-10-09T05:10:41.625Z,60.7
2018-10-09T05:11:42.340Z,62.8
2018-10-09T05:12:43.315Z,61.8
2018-10-09T05:13:44.025Z,57.8
2018-10-09T05:14:44.741Z,59.5
2018-10-09T05:15:45.455Z,60.1
2018-10-09T05:16:46.166Z,60.0
2018-10-09T05:17:47.140Z,62.5
2018-10-09T05:18:47.843Z,60.9
2018-10-09T05:19:48.550Z,58.2
2018-10-09T05:20:49.255Z,63.1
2018-10-09T05:21:49.978Z,66.4
2018-10-09T05:22:50.741Z,66.3
2018-10-09T05:23:51.477Z,63.9
2018-10-09T05:24:52.193Z,66.2
2018-10-09T05:25:52.896Z,65.3
2018-10-09T05:26:53.857Z,62.3
2018-10-09T05:27:54.621Z,61.0
2018-10-09T05:28:55.336Z,60.0
2018-10-09T05:29:56.049Z,61.0
2018-10-09T05:30:56.826Z,62.1
2018-10-09T05:31:57.504Z,64.3
2018-10-09T05:32:58.515Z,63.9
2018-10-09T05:33:59.236Z,67.1
2018-10-09T05:34:59.970Z,65.8
2018-10-09T05:36:00.685Z,62.0
2018-10-09T05:37:01.401Z,62.2
2018-10-09T05:38:02.110Z,59.5
2018-10-09T05:39:02.822Z,60.6
2018-10-09T05:40:03.541Z,61.1
2018-10-09T05:41:04.501Z,60.6
2018-10-09T05:42:05.227Z,59.2
2018-10-09T05:43:05.942Z,59.1
2018-10-09T05:44:06.705Z,59.4
2018-10-09T05:45:07.392Z,61.9
2018-10-09T05:46:08.112Z,59.6
2018-10-09T05:47:08.837Z,57.9
2018-10-09T05:48:09.557Z,57.7
2018-10-09T05:49:10.286Z,57.6
2018-10-09T05:50:11.015Z,60.0
2018-10-09T05:51:11.741Z,60.4
2018-10-09T05:52:12.461Z,65.9
2018-10-09T05:53:13.180Z,60.1
2018-10-09T05:54:13.941Z,65.0
2018-10-09T05:55:14.690Z,62.1
2018-10-09T05:56:15.414Z,61.4
2018-10-09T05:57:16.137Z,57.5
2018-10-09T05:58:16.869Z,60.7
2018-10-09T05:59:17.571Z,62.5
2018-10-09T06:00:18.306Z,64.6
2018-10-09T06:01:19.018Z,63.8
2018-10-09T06:02:19.748Z,63.1
2018-10-09T06:03:20.467Z,61.8
2018-10-09T06:04:21.190Z,60.2
2018-10-09T06:05:21.899Z,59.7
2018-10-09T06:06:22.620Z,59.4
2018-10-09T06:07:23.329Z,59.0
2018-10-09T06:08:24.056Z,59.1
2018-10-09T06:09:24.780Z,58.8
2018-10-09T06:10:25.503Z,57.5
2018-10-09T06:11:26.218Z,60.7
2018-10-09T06:12:26.949Z,61.4
2018-10-09T06:13:27.919Z,61.6
2018-10-09T06:14:28.646Z,61.9
2018-10-09T06:15:29.396Z,59.8
2018-10-09T06:16:30.129Z,67.6
2018-10-09T06:17:30.848Z,66.5
2018-10-09T06:18:31.815Z,66.7
2018-10-09T06:19:32.535Z,69.0
2018-10-09T06:20:33.251Z,63.8
2018-10-09T06:21:33.973Z,63.1
2018-10-09T06:22:34.685Z,67.9
2018-10-09T06:23:35.412Z,67.4
2018-10-09T06:24:36.148Z,67.3
2018-10-09T06:25:36.861Z,61.9
2018-10-09T06:26:37.574Z,62.2
2018-10-09T06:27:38.315Z,59.4
2018-10-09T06:28:39.036Z,62.6
2018-10-09T06:29:39.756Z,65.2
2018-10-09T06:30:40.475Z,66.5
2018-10-09T06:31:41.199Z,62.3
2018-10-09T06:32:41.920Z,66.4
2018-10-09T06:33:42.653Z,62.6
2018-10-09T06:34:43.371Z,66.5
2018-10-09T06:35:44.105Z,69.6
2018-10-09T06:36:44.832Z,67.9
2018-10-09T06:37:45.569Z,69.5
2018-10-09T06:38:46.330Z,70.0
2018-10-09T06:39:47.028Z,70.5
2018-10-09T06:40:47.780Z,73.1
2018-10-09T06:41:48.561Z,74.4
2018-10-09T06:42:49.427Z,71.3
2018-10-09T06:43:50.074Z,70.2
2018-10-09T06:44:51.048Z,66.5
2018-10-09T06:45:51.767Z,67.2
2018-10-09T06:46:52.494Z,65.3
2018-10-09T06:47:53.220Z,65.2
2018-10-09T06:48:53.930Z,65.3
2018-10-09T06:49:54.657Z,65.0
2018-10-09T06:50:55.377Z,65.6
2018-10-09T06:51:56.096Z,62.5
2018-10-09T06:52:57.061Z,65.5
2018-10-09T06:53:58.025Z,65.3
2018-10-09T06:54:58.573Z,65.5
2018-10-09T06:55:59.246Z,60.9
2018-10-09T06:56:59.969Z,63.3
2018-10-09T06:58:00.709Z,63.2
2018-10-09T06:59:01.422Z,61.3
2018-10-09T07:00:02.244Z,63.7
2018-10-09T07:01:02.878Z,67.4
2018-10-09T07:02:03.607Z,66.8
2018-10-09T07:03:04.582Z,65.8
2018-10-09T07:05:06.993Z,60.4
2018-10-09T07:06:07.730Z,60.3
2018-10-09T07:07:08.465Z,60.4
2018-10-09T07:08:09.402Z,65.1
2018-10-09T07:09:10.117Z,64.0
2018-10-09T07:10:10.839Z,60.8
2018-10-09T07:11:11.642Z,58.5
2018-10-09T07:12:12.326Z,59.7
2018-10-09T07:13:13.100Z,60.5
2018-10-09T07:14:13.822Z,57.1
2018-10-09T07:15:14.544Z,61.3
2018-10-09T07:16:15.270Z,64.6
2018-10-09T07:17:15.993Z,65.2
2018-10-09T07:18:16.967Z,70.2
2018-10-09T07:19:17.697Z,67.8
2018-10-09T07:20:18.414Z,62.6
2018-10-09T07:21:19.128Z,66.5
2018-10-09T07:22:19.858Z,67.4
2018-10-09T07:23:20.643Z,64.7
2018-10-09T07:24:21.344Z,64.5
2018-10-09T07:25:22.091Z,60.7
2018-10-09T07:26:22.823Z,62.2
2018-10-09T07:27:23.538Z,57.5
2018-10-09T07:28:24.280Z,56.5
2018-10-09T07:29:25.001Z,55.8
2018-10-09T07:30:25.736Z,55.0
2018-10-09T07:31:26.456Z,56.6
2018-10-09T07:32:27.171Z,55.2
2018-10-09T07:33:27.887Z,57.3
2018-10-09T07:34:28.601Z,54.6
2018-10-09T07:35:29.341Z,53.7
2018-10-09T07:36:30.053Z,51.1
2018-10-09T07:37:31.068Z,52.6
2018-10-09T07:38:31.759Z,49.4
2018-10-09T07:39:32.484Z,49.9
2018-10-09T07:40:33.495Z,51.7
2018-10-09T07:41:34.220Z,50.3
2018-10-09T07:42:34.945Z,52.2
2018-10-09T07:43:35.685Z,52.1
2018-10-09T07:44:36.399Z,52.2
2018-10-09T07:45:37.170Z,52.4
2018-10-09T07:46:37.884Z,51.5
2018-10-09T07:47:38.598Z,49.5
2018-10-09T07:48:39.329Z,48.6
2018-10-09T07:49:40.055Z,50.3
2018-10-09T07:50:40.775Z,50.2
2018-10-09T07:51:41.500Z,50.7
2018-10-09T07:52:42.274Z,46.3
2018-10-09T07:53:42.959Z,44.5
2018-10-09T07:54:43.674Z,42.1
2018-10-09T07:55:44.401Z,36.9
2018-10-09T07:56:45.114Z,34.4
2018-10-09T07:57:45.894Z,31.9
2018-10-09T07:58:46.675Z,28.9
2018-10-09T07:59:47.338Z,23.7
2018-10-09T08:00:48.069Z,22.9
2018-10-09T08:01:48.798Z,20.8
2018-10-09T08:02:49.575Z,18.3
2018-10-09T08:03:50.308Z,17.3
2018-10-09T08:04:51.075Z,16.0
2018-10-09T08:05:51.767Z,14.7
2018-10-09T08:06:52.493Z,14.2
2018-10-09T08:07:53.237Z,14.7
2018-10-09T08:08:53.965Z,14.8
2018-10-09T08:09:54.686Z,15.5
2018-10-09T08:10:55.431Z,15.6
2018-10-09T08:11:56.141Z,14.1
2018-10-09T08:12:57.126Z,15.2
2018-10-09T08:13:57.863Z,14.4
2018-10-09T08:14:58.575Z,14.1
2018-10-09T08:15:59.317Z,15.1
2018-10-09T08:17:00.035Z,13.9
2018-10-09T08:18:00.762Z,13.9
2018-10-09T08:19:01.495Z,15.1
2018-10-09T08:20:02.225Z,16.0
2018-10-09T08:21:02.944Z,15.6
2018-10-09T08:22:03.682Z,17.5
2018-10-09T08:23:04.413Z,17.2
2018-10-09T08:24:05.407Z,17.5
2018-10-09T08:25:06.190Z,18.7
2018-10-09T08:26:06.915Z,16.9
2018-10-09T08:27:07.642Z,17.0
2018-10-09T08:28:08.409Z,16.2
2018-10-09T08:29:09.120Z,16.7
2018-10-09T08:30:09.891Z,16.2
2018-10-09T08:31:10.618Z,18.2
2018-10-09T08:32:11.369Z,18.5
2018-10-09T08:33:12.085Z,17.6
2018-10-09T08:34:12.804Z,18.3
2018-10-09T08:35:13.534Z,17.3
2018-10-09T08:36:14.259Z,16.8
2018-10-09T08:37:14.984Z,17.2
2018-10-09T08:38:15.718Z,17.6
2018-10-09T08:39:16.451Z,15.9
2018-10-09T08:40:17.290Z,15.5
2018-10-09T08:41:17.952Z,15.1
2018-10-09T08:42:18.683Z,15.5
2018-10-09T08:43:19.414Z,15.2
2018-10-09T08:44:20.140Z,15.9
2018-10-09T08:45:20.872Z,16.6
2018-10-09T08:46:21.691Z,16.6
2018-10-09T08:47:22.332Z,16.0
2018-10-09T08:48:23.061Z,13.2
2018-10-09T08:49:23.808Z,14.1
2018-10-09T08:50:24.783Z,14.2
2018-10-09T08:51:25.519Z,14.7
2018-10-09T08:52:26.553Z,14.7
2018-10-09T08:53:27.281Z,13.7
2018-10-09T08:54:28.011Z,14.2
2018-10-09T08:55:28.742Z,13.6
2018-10-09T08:56:29.465Z,14.4
2018-10-09T08:57:30.289Z,13.8
2018-10-09T08:58:30.992Z,14.2
2018-10-09T08:59:31.728Z,14.2
2018-10-09T09:00:32.460Z,13.9
2018-10-09T09:01:33.436Z,14.1
2018-10-09T09:02:34.221Z,14.2
2018-10-09T09:03:34.987Z,14.6
2018-10-09T09:04:35.699Z,13.5
2018-10-09T09:05:36.426Z,13.3
2018-10-09T09:06:37.166Z,14.3
2018-10-09T09:07:37.907Z,14.0
2018-10-09T09:08:38.630Z,14.3
2018-10-09T09:09:39.380Z,13.4
2018-10-09T09:10:40.351Z,13.3
2018-10-09T09:11:41.066Z,14.2
2018-10-09T09:12:41.848Z,14.6
2018-10-09T09:13:42.589Z,14.1
2018-10-09T09:14:43.315Z,13.5
2018-10-09T09:15:44.293Z,15.1
2018-10-09T09:16:45.020Z,13.3
2018-10-09T09:17:45.816Z,12.9
2018-10-09T09:18:46.545Z,13.7
2018-10-09T09:19:47.322Z,13.9
2018-10-09T09:20:48.098Z,13.3
2018-10-09T09:21:48.788Z,14.0
2018-10-09T09:22:49.563Z,14.0
2018-10-09T09:23:50.318Z,14.6
2018-10-09T09:24:51.063Z,13.9
2018-10-09T09:25:51.792Z,15.0
2018-10-09T09:26:52.549Z,14.9
2018-10-09T09:27:53.316Z,14.5
2018-10-09T09:28:53.987Z,13.7
2018-10-09T09:29:54.725Z,14.7
2018-10-09T09:30:55.448Z,15.1
2018-10-09T09:31:56.177Z,14.2
2018-10-09T09:32:56.939Z,15.0
2018-10-09T09:33:57.645Z,13.7
2018-10-09T09:34:58.410Z,14.4
2018-10-09T09:35:59.143Z,13.5
2018-10-09T09:36:59.891Z,14.4
2018-10-09T09:38:00.616Z,14.1
2018-10-09T09:39:01.386Z,14.9
2018-10-09T09:40:02.416Z,14.5
2018-10-09T09:41:03.145Z,14.5
2018-10-09T09:42:04.662Z,14.4
2018-10-09T09:43:05.439Z,14.5
2018-10-09T09:44:06.325Z,15.5
2018-10-09T09:45:07.067Z,14.9
2018-10-09T09:46:07.822Z,14.7
2018-10-09T09:47:08.535Z,14.1
2018-10-09T09:48:09.572Z,12.7
2018-10-09T09:49:10.306Z,14.0
2018-10-09T09:50:11.296Z,15.2
2018-10-09T09:51:12.015Z,13.5
2018-10-09T09:52:12.791Z,13.2
2018-10-09T09:53:13.505Z,13.9
2018-10-09T09:54:14.550Z,13.4
2018-10-09T09:55:15.289Z,15.0
2018-10-09T09:56:16.018Z,13.5
2018-10-09T09:57:16.770Z,12.5
2018-10-09T09:58:17.596Z,14.8
2018-10-09T09:59:18.273Z,15.6
2018-10-09T10:00:19.003Z,15.3
2018-10-09T10:01:19.748Z,14.4
2018-10-09T10:02:20.465Z,14.9
2018-10-09T10:03:21.202Z,15.6
2018-10-09T10:04:21.930Z,15.6
2018-10-09T10:05:22.672Z,15.2
2018-10-09T10:06:23.426Z,16.1
2018-10-09T10:07:24.168Z,15.7
2018-10-09T10:08:24.900Z,15.0
2018-10-09T10:09:25.765Z,16.0
2018-10-09T10:10:26.367Z,14.5
2018-10-09T10:11:27.102Z,15.5
2018-10-09T10:12:28.093Z,15.7
2018-10-09T10:13:29.086Z,15.5
2018-10-09T10:14:29.825Z,15.5
2018-10-09T10:15:30.560Z,15.3
2018-10-09T10:16:31.291Z,15.4
2018-10-09T10:17:32.032Z,14.4
2018-10-09T10:18:32.781Z,14.9
2018-10-09T10:19:33.497Z,16.4
2018-10-09T10:20:34.478Z,15.9
2018-10-09T10:21:35.473Z,15.1
2018-10-09T10:22:36.264Z,16.8
2018-10-09T10:23:36.988Z,15.9
2018-10-09T10:24:37.970Z,15.7
2018-10-09T10:25:38.709Z,16.9
2018-10-09T10:26:39.446Z,16.1
2018-10-09T10:27:40.184Z,16.4
2018-10-09T10:28:40.923Z,16.5
2018-10-09T10:29:41.650Z,16.7
2018-10-09T10:30:42.375Z,16.6
2018-10-09T10:31:43.378Z,16.3
2018-10-09T10:32:44.099Z,17.3
2018-10-09T10:33:44.846Z,16.7
2018-10-09T10:34:45.571Z,15.7
2018-10-09T10:35:46.398Z,16.9
2018-10-09T10:36:47.086Z,18.7
2018-10-09T10:37:47.855Z,16.6
2018-10-09T10:38:48.575Z,16.4
2018-10-09T10:39:49.603Z,17.8
2018-10-09T10:40:50.334Z,17.4
2018-10-09T10:41:51.063Z,16.8
2018-10-09T10:42:52.136Z,18.1
2018-10-09T10:43:53.142Z,16.4
2018-10-09T10:44:53.871Z,16.4
2018-10-09T10:45:54.607Z,16.7
2018-10-09T10:46:55.632Z,16.1
2018-10-09T10:47:56.346Z,16.3
2018-10-09T10:48:57.337Z,15.4
2018-10-09T10:49:58.059Z,15.7
2018-10-09T10:50:59.418Z,16.2
2018-10-09T10:52:00.232Z,15.5
2018-10-09T10:53:01.004Z,15.3
2018-10-09T10:54:01.869Z,15.6
2018-10-09T10:55:02.988Z,15.8
2018-10-09T10:56:03.690Z,15.3
2018-10-09T10:57:04.460Z,14.7
2018-10-09T10:58:05.194Z,15.8
2018-10-09T10:59:05.927Z,15.5
2018-10-09T11:00:06.689Z,15.4
2018-10-09T11:01:07.418Z,16.0
2018-10-09T11:02:08.154Z,15.9
2018-10-09T11:03:08.897Z,15.3
2018-10-09T11:04:09.629Z,14.8
2018-10-09T11:05:10.360Z,15.9
2018-10-09T11:06:11.113Z,14.9
2018-10-09T11:07:11.893Z,15.3
2018-10-09T11:08:12.644Z,15.4
2018-10-09T11:09:13.345Z,15.3
2018-10-09T11:10:14.109Z,15.3
2018-10-09T11:11:14.847Z,16.0
2018-10-09T11:12:15.590Z,16.9
2018-10-09T11:13:16.316Z,15.6
2018-10-09T11:14:17.064Z,14.9
2018-10-09T11:15:17.808Z,14.9
2018-10-09T11:16:18.554Z,14.4
2018-10-09T11:17:19.390Z,15.8
2018-10-09T11:18:20.137Z,16.0
2018-10-09T11:19:20.866Z,15.3
2018-10-09T11:20:21.604Z,14.6
2018-10-09T11:21:22.425Z,15.3
2018-10-09T11:22:23.097Z,15.8
2018-10-09T11:23:23.827Z,14.7
2018-10-09T11:24:24.595Z,16.2
2018-10-09T11:25:25.587Z,15.1
2018-10-09T11:26:26.326Z,15.0
2018-10-09T11:27:27.069Z,15.8
2018-10-09T11:28:27.816Z,15.9
2018-10-09T11:29:28.876Z,15.0
2018-10-09T11:30:29.603Z,15.5
2018-10-09T11:31:30.339Z,14.9
2018-10-09T11:32:31.090Z,13.8
2018-10-09T11:33:31.819Z,13.7
2018-10-09T11:34:32.878Z,14.8
2018-10-09T11:35:33.605Z,13.8
2018-10-09T11:36:34.336Z,15.6
2018-10-09T11:37:35.081Z,14.7
2018-10-09T11:38:36.088Z,15.5
2018-10-09T11:39:36.860Z,15.6
2018-10-09T11:40:37.590Z,14.8
2018-10-09T11:41:38.327Z,14.6
2018-10-09T11:42:39.088Z,14.5
2018-10-09T11:43:39.799Z,15.4
2018-10-09T11:44:40.526Z,14.2
2018-10-09T11:45:41.266Z,14.7
2018-10-09T11:46:42.000Z,14.8
2018-10-09T11:47:42.743Z,14.3
2018-10-09T11:48:43.720Z,14.6
2018-10-09T11:49:44.511Z,14.3
2018-10-09T11:50:45.246Z,15.0
2018-10-09T11:51:45.970Z,15.8
2018-10-09T11:52:46.701Z,14.8
2018-10-09T11:53:47.426Z,14.3
2018-10-09T11:54:48.160Z,13.5
2018-10-09T11:55:48.897Z,15.1
2018-10-09T11:56:49.675Z,14.7
2018-10-09T11:57:50.413Z,15.2
2018-10-09T11:58:51.200Z,14.3
2018-10-09T11:59:51.880Z,13.6
2018-10-09T12:00:52.617Z,15.5
2018-10-09T12:01:53.356Z,14.7
2018-10-09T12:02:54.196Z,15.4
2018-10-09T12:03:54.839Z,14.2
2018-10-09T12:04:55.586Z,13.3
2018-10-09T12:05:56.332Z,15.0
2018-10-09T12:06:57.076Z,15.3
2018-10-09T12:07:57.811Z,15.4
2018-10-09T12:08:58.573Z,15.0
2018-10-09T12:09:59.294Z,15.5
2018-10-09T12:11:00.022Z,15.7
2018-10-09T12:12:00.759Z,15.5
2018-10-09T12:13:01.497Z,15.1
2018-10-09T12:14:02.284Z,14.7
2018-10-09T12:15:02.988Z,14.4
2018-10-09T12:16:03.984Z,15.4
2018-10-09T12:17:04.728Z,15.2
2018-10-09T12:18:05.463Z,14.9
2018-10-09T12:19:06.203Z,14.6
2018-10-09T12:20:06.948Z,15.7
2018-10-09T12:21:07.677Z,14.7
2018-10-09T12:22:08.413Z,14.5
2018-10-09T12:23:09.153Z,14.0
2018-10-09T12:24:09.878Z,15.7
2018-10-09T12:25:10.630Z,15.4
2018-10-09T12:26:11.608Z,15.5
2018-10-09T12:27:12.428Z,16.3
2018-10-09T12:28:13.066Z,14.5
2018-10-09T12:29:13.798Z,14.3
2018-10-09T12:30:14.531Z,14.0
2018-10-09T12:31:15.281Z,14.1
2018-10-09T12:32:16.025Z,14.8
2018-10-09T12:33:17.011Z,15.1
2018-10-09T12:34:17.756Z,14.3
2018-10-09T12:35:18.483Z,15.7
2018-10-09T12:36:19.231Z,14.7
2018-10-09T12:37:19.964Z,15.4
2018-10-09T12:38:20.727Z,15.9
2018-10-09T12:39:21.433Z,16.2
2018-10-09T12:40:22.166Z,16.6
2018-10-09T12:41:22.901Z,16.8
2018-10-09T12:42:23.699Z,15.8
2018-10-09T12:43:24.437Z,16.0
2018-10-09T12:44:25.215Z,16.0
2018-10-09T12:45:25.899Z,15.9
2018-10-09T12:46:26.624Z,15.0
2018-10-09T12:47:27.416Z,15.3
2018-10-09T12:48:28.156Z,15.1
2018-10-09T12:49:28.882Z,15.2
2018-10-09T12:50:29.623Z,16.6
2018-10-09T12:51:30.353Z,17.0
2018-10-09T12:52:31.082Z,16.4
2018-10-09T12:53:31.815Z,16.6
2018-10-09T12:54:32.567Z,16.7
2018-10-09T12:55:33.295Z,15.9
2018-10-09T12:56:34.029Z,15.7
2018-10-09T12:57:34.774Z,16.6
2018-10-09T12:58:35.581Z,14.5
2018-10-09T12:59:36.240Z,15.7
2018-10-09T13:00:36.984Z,15.3
2018-10-09T13:01:37.724Z,16.0
2018-10-09T13:02:38.722Z,14.0
2018-10-09T13:03:39.451Z,15.2
2018-10-09T13:04:40.187Z,14.7
2018-10-09T13:05:40.917Z,14.1
2018-10-09T13:06:41.913Z,15.1
2018-10-09T13:07:42.685Z,17.5
2018-10-09T13:08:43.417Z,16.0
2018-10-09T13:09:44.166Z,17.6
2018-10-09T13:10:44.887Z,13.2
2018-10-09T13:11:45.620Z,13.5
2018-10-09T13:12:46.346Z,14.4
2018-10-09T13:13:47.080Z,14.2
2018-10-09T13:14:47.857Z,16.9
2018-10-09T13:15:48.579Z,15.6
2018-10-09T13:16:49.336Z,17.1
2018-10-09T13:17:50.062Z,14.2
2018-10-09T13:18:50.816Z,15.2
2018-10-09T13:19:51.588Z,16.6
2018-10-09T13:20:52.426Z,16.0
2018-10-09T13:21:53.158Z,16.7
2018-10-09T13:22:53.821Z,16.8
2018-10-09T13:23:54.535Z,16.1
2018-10-09T13:24:55.573Z,17.2
2018-10-09T13:25:56.561Z,17.0
2018-10-09T13:26:57.349Z,16.5
2018-10-09T13:27:58.039Z,15.9
2018-10-09T13:28:59.185Z,15.2
2018-10-09T13:29:59.987Z,16.9